sensor_id;sensor_type;location;lat;lon;timestamp;pressure;altitude;pressure_sealevel;temperature;humidity
32851;BME280;19202;48.992;8.390;2023-02-04T00:01:31;101819.81;;;9.86;98.34
32851;BME280;19202;48.992;8.390;2023-02-04T00:07:09;101829.53;;;9.83;98.74
32851;BME280;19202;48.992;8.390;2023-02-04T00:12:46;101836.53;;;9.90;97.95
32851;BME280;19202;48.992;8.390;2023-02-04T00:18:24;101816.38;;;9.80;99.04
32851;BME280;19202;48.992;8.390;2023-02-04T00:24:02;101819.88;;;9.80;99.53
32851;BME280;19202;48.992;8.390;2023-02-04T00:29:40;101830.38;;;9.86;99.93
32851;BME280;19202;48.992;8.390;2023-02-04T00:35:18;101840.13;;;9.83;100.00
32851;BME280;19202;48.992;8.390;2023-02-04T00:40:56;101833.09;;;9.79;100.00
32851;BME280;19202;48.992;8.390;2023-02-04T00:46:34;101834.78;;;9.89;100.00
32851;BME280;19202;48.992;8.390;2023-02-04T00:52:12;101842.72;;;9.87;100.00
32851;BME280;19202;48.992;8.390;2023-02-04T00:57:49;101832.22;;;9.81;100.00
32851;BME280;19202;48.992;8.390;2023-02-04T01:03:28;101829.63;;;9.74;100.00
32851;BME280;19202;48.992;8.390;2023-02-04T01:09:05;101842.03;;;9.66;100.00
32851;BME280;19202;48.992;8.390;2023-02-04T01:14:44;101841.94;;;9.75;100.00
32851;BME280;19202;48.992;8.390;2023-02-04T01:20:22;101840.13;;;9.81;100.00
32851;BME280;19202;48.992;8.390;2023-02-04T01:26:00;101858.66;;;9.78;100.00
32851;BME280;19202;48.992;8.390;2023-02-04T01:31:38;101846.28;;;9.83;100.00
32851;BME280;19202;48.992;8.390;2023-02-04T01:37:16;101849.03;;;9.71;100.00
32851;BME280;19202;48.992;8.390;2023-02-04T01:42:54;101854.34;;;9.70;100.00
32851;BME280;19202;48.992;8.390;2023-02-04T01:48:32;101862.41;;;9.52;100.00
32851;BME280;19202;48.992;8.390;2023-02-04T01:54:12;101854.50;;;9.49;100.00
32851;BME280;19202;48.992;8.390;2023-02-04T01:59:53;101862.41;;;9.53;100.00
32851;BME280;19202;48.992;8.390;2023-02-04T02:05:36;101859.72;;;9.58;100.00
32851;BME280;19202;48.992;8.390;2023-02-04T02:11:15;101860.59;;;9.60;100.00
32851;BME280;19202;48.992;8.390;2023-02-04T02:16:53;101865.78;;;9.69;100.00
32851;BME280;19202;48.992;8.390;2023-02-04T02:22:36;101877.25;;;9.68;100.00
32851;BME280;19202;48.992;8.390;2023-02-04T02:28:18;101910.69;;;9.75;100.00
32851;BME280;19202;48.992;8.390;2023-02-04T02:33:56;101914.19;;;9.80;100.00
32851;BME280;19202;48.992;8.390;2023-02-04T02:39:36;101905.34;;;9.84;100.00
32851;BME280;19202;48.992;8.390;2023-02-04T02:45:26;101904.38;;;9.94;100.00
32851;BME280;19202;48.992;8.390;2023-02-04T02:51:05;101909.66;;;9.94;99.76
32851;BME280;19202;48.992;8.390;2023-02-04T02:56:43;101907.91;;;9.91;100.00
32851;BME280;19202;48.992;8.390;2023-02-04T03:02:22;101923.75;;;9.96;99.95
32851;BME280;19202;48.992;8.390;2023-02-04T03:08:01;101921.16;;;9.87;100.00
32851;BME280;19202;48.992;8.390;2023-02-04T03:13:40;101933.47;;;9.94;100.00
32851;BME280;19202;48.992;8.390;2023-02-04T03:19:18;101932.47;;;10.02;99.96
32851;BME280;19202;48.992;8.390;2023-02-04T03:24:57;101929.84;;;10.04;98.66
32851;BME280;19202;48.992;8.390;2023-02-04T03:30:35;101938.69;;;10.00;99.33
32851;BME280;19202;48.992;8.390;2023-02-04T03:36:13;101938.66;;;10.06;98.80
32851;BME280;19202;48.992;8.390;2023-02-04T03:41:51;101944.03;;;9.91;98.67
32851;BME280;19202;48.992;8.390;2023-02-04T03:47:29;101952.84;;;9.96;98.48
32851;BME280;19202;48.992;8.390;2023-02-04T03:53:08;101965.19;;;9.91;98.32
32851;BME280;19202;48.992;8.390;2023-02-04T03:58:45;101982.84;;;9.89;98.65
32851;BME280;19202;48.992;8.390;2023-02-04T04:04:23;101974.91;;;9.84;99.11
32851;BME280;19202;48.992;8.390;2023-02-04T04:10:02;101981.13;;;9.82;98.55
32851;BME280;19202;48.992;8.390;2023-02-04T04:15:40;101984.63;;;9.82;97.88
32851;BME280;19202;48.992;8.390;2023-02-04T04:21:18;101988.19;;;9.77;97.88
32851;BME280;19202;48.992;8.390;2023-02-04T04:26:56;102005.00;;;9.67;97.96
32851;BME280;19202;48.992;8.390;2023-02-04T04:32:34;101981.25;;;9.61;97.96
32851;BME280;19202;48.992;8.390;2023-02-04T04:38:12;101981.28;;;9.58;99.09
32851;BME280;19202;48.992;8.390;2023-02-04T04:43:49;102003.25;;;9.63;98.68
32851;BME280;19202;48.992;8.390;2023-02-04T04:49:27;102006.75;;;9.69;98.16
32851;BME280;19202;48.992;8.390;2023-02-04T04:55:06;101998.81;;;9.71;97.91
32851;BME280;19202;48.992;8.390;2023-02-04T05:00:45;102000.63;;;9.66;97.74
32851;BME280;19202;48.992;8.390;2023-02-04T05:06:23;101988.28;;;9.65;97.64
32851;BME280;19202;48.992;8.390;2023-02-04T05:12:02;101998.88;;;9.59;97.53
32851;BME280;19202;48.992;8.390;2023-02-04T05:17:40;101993.69;;;9.44;97.12
32851;BME280;19202;48.992;8.390;2023-02-04T05:23:18;101991.06;;;9.41;97.56
32851;BME280;19202;48.992;8.390;2023-02-04T05:28:56;101999.84;;;9.43;98.18
32851;BME280;19202;48.992;8.390;2023-02-04T05:34:34;102008.63;;;9.45;98.13
32851;BME280;19202;48.992;8.390;2023-02-04T05:40:12;102020.94;;;9.50;97.73
32851;BME280;19202;48.992;8.390;2023-02-04T05:45:50;102014.75;;;9.59;96.81
32851;BME280;19202;48.992;8.390;2023-02-04T05:51:28;102014.75;;;9.59;96.72
32851;BME280;19202;48.992;8.390;2023-02-04T05:57:06;102023.56;;;9.55;96.91
32851;BME280;19202;48.992;8.390;2023-02-04T06:02:44;102020.03;;;9.59;96.38
32851;BME280;19202;48.992;8.390;2023-02-04T06:08:22;102044.66;;;9.65;95.90
32851;BME280;19202;48.992;8.390;2023-02-04T06:14:00;102053.44;;;9.70;95.37
32851;BME280;19202;48.992;8.390;2023-02-04T06:19:37;102057.00;;;9.68;95.13
32851;BME280;19202;48.992;8.390;2023-02-04T06:25:16;102062.28;;;9.65;95.60
32851;BME280;19202;48.992;8.390;2023-02-04T06:30:54;102086.06;;;9.68;95.22
32851;BME280;19202;48.992;8.390;2023-02-04T06:36:32;102085.16;;;9.69;95.17
32851;BME280;19202;48.992;8.390;2023-02-04T06:42:10;102090.44;;;9.69;94.72
32851;BME280;19202;48.992;8.390;2023-02-04T06:47:48;102094.88;;;9.70;94.77
32851;BME280;19202;48.992;8.390;2023-02-04T06:53:26;102086.91;;;9.68;94.66
32851;BME280;19202;48.992;8.390;2023-02-04T06:59:04;102108.97;;;9.67;94.58
32851;BME280;19202;48.992;8.390;2023-02-04T07:04:42;102113.38;;;9.65;94.27
32851;BME280;19202;48.992;8.390;2023-02-04T07:10:20;102127.47;;;9.69;94.67
32851;BME280;19202;48.992;8.390;2023-02-04T07:15:58;102114.19;;;9.76;94.00
32851;BME280;19202;48.992;8.390;2023-02-04T07:21:36;102130.06;;;9.76;93.69
32851;BME280;19202;48.992;8.390;2023-02-04T07:27:14;102145.94;;;9.75;93.07
32851;BME280;19202;48.992;8.390;2023-02-04T07:32:52;102144.16;;;9.77;92.87
32851;BME280;19202;48.992;8.390;2023-02-04T07:38:30;102145.06;;;9.76;92.74
32851;BME280;19202;48.992;8.390;2023-02-04T07:44:08;102153.84;;;9.81;92.49
32851;BME280;19202;48.992;8.390;2023-02-04T07:49:46;102160.03;;;9.80;91.26
32851;BME280;19202;48.992;8.390;2023-02-04T07:55:24;102160.88;;;9.85;91.28
32851;BME280;19202;48.992;8.390;2023-02-04T08:01:02;102180.25;;;9.88;90.87
32851;BME280;19202;48.992;8.390;2023-02-04T08:06:40;102198.75;;;9.96;90.98
32851;BME280;19202;48.992;8.390;2023-02-04T08:12:17;102196.06;;;10.08;89.62
32851;BME280;19202;48.992;8.390;2023-02-04T08:17:55;102209.25;;;10.17;87.95
32851;BME280;19202;48.992;8.390;2023-02-04T08:23:33;102213.56;;;10.42;88.25
32851;BME280;19202;48.992;8.390;2023-02-04T08:29:11;102225.66;;;10.82;86.29
32851;BME280;19202;48.992;8.390;2023-02-04T08:34:49;102212.22;;;11.05;82.72
32851;BME280;19202;48.992;8.390;2023-02-04T08:40:27;102219.16;;;11.20;81.14
32851;BME280;19202;48.992;8.390;2023-02-04T08:46:05;102226.88;;;11.45;81.18
32851;BME280;19202;48.992;8.390;2023-02-04T08:51:43;102226.44;;;11.92;77.38
32851;BME280;19202;48.992;8.390;2023-02-04T08:57:20;102241.88;;;12.31;76.50
32851;BME280;19202;48.992;8.390;2023-02-04T09:02:58;102241.03;;;13.45;71.51
32851;BME280;19202;48.992;8.390;2023-02-04T09:08:36;102234.94;;;14.31;70.03
32851;BME280;19202;48.992;8.390;2023-02-04T09:14:14;102250.44;;;19.51;58.20
32851;BME280;19202;48.992;8.390;2023-02-04T09:19:52;102252.78;;;24.59;36.96
32851;BME280;19202;48.992;8.390;2023-02-04T09:25:30;102256.75;;;25.23;42.22
32851;BME280;19202;48.992;8.390;2023-02-04T09:31:09;102249.59;;;24.67;40.09
32851;BME280;19202;48.992;8.390;2023-02-04T09:36:47;102247.97;;;23.78;38.94
32851;BME280;19202;48.992;8.390;2023-02-04T09:42:26;102265.44;;;22.96;39.82
32851;BME280;19202;48.992;8.390;2023-02-04T09:48:05;102258.31;;;21.80;38.29
32851;BME280;19202;48.992;8.390;2023-02-04T09:53:44;102261.34;;;21.21;41.07
32851;BME280;19202;48.992;8.390;2023-02-04T09:59:22;102282.03;;;20.83;40.52
32851;BME280;19202;48.992;8.390;2023-02-04T10:05:01;102275.00;;;20.24;43.67
32851;BME280;19202;48.992;8.390;2023-02-04T10:10:38;102277.03;;;20.37;42.98
32851;BME280;19202;48.992;8.390;2023-02-04T10:16:19;102269.09;;;19.10;44.12
32851;BME280;19202;48.992;8.390;2023-02-04T10:21:58;102277.56;;;18.07;46.02
32851;BME280;19202;48.992;8.390;2023-02-04T10:27:55;102294.41;;;17.06;46.30
32851;BME280;19202;48.992;8.390;2023-02-04T10:33:34;102291.91;;;16.42;48.94
32851;BME280;19202;48.992;8.390;2023-02-04T10:44:56;102290.63;;;17.92;46.84
32851;BME280;19202;48.992;8.390;2023-02-04T10:50:35;102282.94;;;22.89;39.78
32851;BME280;19202;48.992;8.390;2023-02-04T10:56:19;102277.19;;;22.80;35.96
32851;BME280;19202;48.992;8.390;2023-02-04T11:01:59;102279.72;;;20.94;39.27
32851;BME280;19202;48.992;8.390;2023-02-04T11:07:38;102274.28;;;27.91;31.92
32851;BME280;19202;48.992;8.390;2023-02-04T11:13:38;102281.09;;;24.96;31.34
32851;BME280;19202;48.992;8.390;2023-02-04T11:19:30;102284.22;;;20.75;34.57
32851;BME280;19202;48.992;8.390;2023-02-04T11:25:35;102277.22;;;18.87;38.71
32851;BME280;19202;48.992;8.390;2023-02-04T11:42:41;102283.13;;;16.37;44.27
32851;BME280;19202;48.992;8.390;2023-02-04T11:48:19;102287.16;;;16.21;44.53
32851;BME280;19202;48.992;8.390;2023-02-04T11:53:57;102283.44;;;21.46;40.22
32851;BME280;19202;48.992;8.390;2023-02-04T11:59:35;102265.13;;;27.33;32.05
32851;BME280;19202;48.992;8.390;2023-02-04T12:05:16;102262.66;;;29.75;30.76
32851;BME280;19202;48.992;8.390;2023-02-04T12:10:58;102264.06;;;30.71;27.19
32851;BME280;19202;48.992;8.390;2023-02-04T12:16:46;102255.88;;;30.21;26.21
32851;BME280;19202;48.992;8.390;2023-02-04T12:22:25;102252.97;;;28.41;28.96
32851;BME280;19202;48.992;8.390;2023-02-04T12:28:03;102264.00;;;26.01;29.40
32851;BME280;19202;48.992;8.390;2023-02-04T12:33:41;102263.75;;;23.25;31.57
32851;BME280;19202;48.992;8.390;2023-02-04T12:39:19;102259.78;;;23.32;34.02
32851;BME280;19202;48.992;8.390;2023-02-04T12:44:57;102269.34;;;22.75;33.36
32851;BME280;19202;48.992;8.390;2023-02-04T12:50:37;102272.63;;;22.64;33.82
32851;BME280;19202;48.992;8.390;2023-02-04T12:56:15;102267.59;;;22.58;33.70
32851;BME280;19202;48.992;8.390;2023-02-04T13:01:54;102263.94;;;23.06;31.98
32851;BME280;19202;48.992;8.390;2023-02-04T13:07:32;102275.59;;;22.10;32.54
32851;BME280;19202;48.992;8.390;2023-02-04T13:13:10;102283.47;;;21.28;33.22
32851;BME280;19202;48.992;8.390;2023-02-04T13:18:48;102284.31;;;20.35;34.31
32851;BME280;19202;48.992;8.390;2023-02-04T13:24:26;102278.84;;;19.76;34.80
32851;BME280;19202;48.992;8.390;2023-02-04T13:30:05;102284.19;;;19.98;35.91
32851;BME280;19202;48.992;8.390;2023-02-04T13:35:43;102278.97;;;20.72;35.47
32851;BME280;19202;48.992;8.390;2023-02-04T13:41:22;102280.88;;;21.08;35.22
32851;BME280;19202;48.992;8.390;2023-02-04T13:47:00;102267.13;;;21.66;34.44
32851;BME280;19202;48.992;8.390;2023-02-04T13:52:38;102275.19;;;21.66;33.34
32851;BME280;19202;48.992;8.390;2023-02-04T13:58:15;102279.09;;;21.25;32.83
32851;BME280;19202;48.992;8.390;2023-02-04T14:03:53;102278.75;;;20.19;33.13
32851;BME280;19202;48.992;8.390;2023-02-04T14:09:31;102292.50;;;18.85;34.00
32851;BME280;19202;48.992;8.390;2023-02-04T14:15:09;102302.59;;;17.55;36.22
32851;BME280;19202;48.992;8.390;2023-02-04T14:20:47;102300.13;;;16.65;38.09
32851;BME280;19202;48.992;8.390;2023-02-04T14:26:26;102303.00;;;16.88;38.27
32851;BME280;19202;48.992;8.390;2023-02-04T14:32:03;102302.31;;;17.64;37.52
32851;BME280;19202;48.992;8.390;2023-02-04T14:37:42;102305.31;;;18.54;35.59
32851;BME280;19202;48.992;8.390;2023-02-04T14:43:20;102300.00;;;18.99;35.31
32851;BME280;19202;48.992;8.390;2023-02-04T14:48:58;102303.88;;;19.57;34.29
32851;BME280;19202;48.992;8.390;2023-02-04T14:54:36;102290.63;;;20.14;32.61
32851;BME280;19202;48.992;8.390;2023-02-04T15:00:14;102299.78;;;20.10;32.04
32851;BME280;19202;48.992;8.390;2023-02-04T15:05:52;102288.50;;;20.22;32.63
32851;BME280;19202;48.992;8.390;2023-02-04T15:11:30;102297.88;;;20.52;31.93
32851;BME280;19202;48.992;8.390;2023-02-04T15:17:09;102292.00;;;20.04;32.38
32851;BME280;19202;48.992;8.390;2023-02-04T15:22:46;102290.25;;;19.41;32.73
32851;BME280;19202;48.992;8.390;2023-02-04T15:28:29;102298.91;;;18.58;33.55
32851;BME280;19202;48.992;8.390;2023-02-04T15:34:07;102303.75;;;17.75;34.09
32851;BME280;19202;48.992;8.390;2023-02-04T15:39:45;102306.31;;;16.96;35.11
32851;BME280;19202;48.992;8.390;2023-02-04T15:45:23;102306.94;;;16.14;36.34
32851;BME280;19202;48.992;8.390;2023-02-04T15:51:01;102307.06;;;15.40;36.98
32851;BME280;19202;48.992;8.390;2023-02-04T15:56:39;102305.19;;;14.69;38.33
32851;BME280;19202;48.992;8.390;2023-02-04T16:02:17;102308.53;;;14.35;39.18
32851;BME280;19202;48.992;8.390;2023-02-04T16:07:55;102326.78;;;14.09;39.96
32851;BME280;19202;48.992;8.390;2023-02-04T16:13:34;102339.72;;;13.82;40.67
32851;BME280;19202;48.992;8.390;2023-02-04T16:19:13;102341.94;;;13.55;42.32
32851;BME280;19202;48.992;8.390;2023-02-04T16:24:51;102349.47;;;13.28;43.34
32851;BME280;19202;48.992;8.390;2023-02-04T16:30:30;102355.13;;;13.01;44.68
32851;BME280;19202;48.992;8.390;2023-02-04T16:36:09;102355.56;;;12.69;45.94
32851;BME280;19202;48.992;8.390;2023-02-04T16:41:49;102366.44;;;12.48;46.63
32851;BME280;19202;48.992;8.390;2023-02-04T16:47:27;102369.31;;;12.28;47.62
32851;BME280;19202;48.992;8.390;2023-02-04T16:53:05;102374.81;;;12.10;48.17
32851;BME280;19202;48.992;8.390;2023-02-04T16:58:43;102375.91;;;11.91;48.93
32851;BME280;19202;48.992;8.390;2023-02-04T17:04:21;102380.44;;;11.74;49.49
32851;BME280;19202;48.992;8.390;2023-02-04T17:10:00;102372.59;;;11.56;50.03
32851;BME280;19202;48.992;8.390;2023-02-04T17:15:38;102376.25;;;11.41;50.92
32851;BME280;19202;48.992;8.390;2023-02-04T17:21:16;102386.97;;;11.26;51.26
32851;BME280;19202;48.992;8.390;2023-02-04T17:26:54;102383.50;;;11.14;52.19
32851;BME280;19202;48.992;8.390;2023-02-04T17:32:31;102388.88;;;11.00;52.68
32851;BME280;19202;48.992;8.390;2023-02-04T17:38:09;102393.34;;;10.87;53.24
32851;BME280;19202;48.992;8.390;2023-02-04T17:43:48;102403.09;;;10.78;53.75
32851;BME280;19202;48.992;8.390;2023-02-04T17:49:27;102405.81;;;10.64;54.11
32851;BME280;19202;48.992;8.390;2023-02-04T17:55:09;102400.56;;;10.52;55.89
32851;BME280;19202;48.992;8.390;2023-02-04T18:00:53;102402.31;;;10.41;55.70
32851;BME280;19202;48.992;8.390;2023-02-04T18:06:36;102400.63;;;10.28;56.60
32851;BME280;19202;48.992;8.390;2023-02-04T18:12:16;102395.31;;;10.19;56.75
32851;BME280;19202;48.992;8.390;2023-02-04T18:17:58;102398.88;;;10.12;57.69
32851;BME280;19202;48.992;8.390;2023-02-04T18:23:36;102405.94;;;10.10;57.58
32851;BME280;19202;48.992;8.390;2023-02-04T18:29:34;102398.84;;;10.06;60.07
32851;BME280;19202;48.992;8.390;2023-02-04T18:46:57;102414.72;;;10.00;59.23
32851;BME280;19202;48.992;8.390;2023-02-04T18:52:42;102412.06;;;9.91;60.38
32851;BME280;19202;48.992;8.390;2023-02-04T18:58:32;102422.66;;;9.82;61.30
32851;BME280;19202;48.992;8.390;2023-02-04T19:04:17;102424.41;;;9.68;61.31
32851;BME280;19202;48.992;8.390;2023-02-04T19:09:56;102421.75;;;9.62;61.19
32851;BME280;19202;48.992;8.390;2023-02-04T19:15:37;102419.09;;;9.59;61.30
32851;BME280;19202;48.992;8.390;2023-02-04T19:21:29;102425.28;;;9.58;62.33
32851;BME280;19202;48.992;8.390;2023-02-04T19:27:24;102424.38;;;9.53;62.70
32851;BME280;19202;48.992;8.390;2023-02-04T19:33:14;102425.25;;;9.49;62.68
32851;BME280;19202;48.992;8.390;2023-02-04T19:39:43;102427.88;;;9.41;62.77
32851;BME280;19202;48.992;8.390;2023-02-04T19:45:40;102437.53;;;9.34;62.64
32851;BME280;19202;48.992;8.390;2023-02-04T19:51:15;102431.38;;;9.32;63.24
32851;BME280;19202;48.992;8.390;2023-02-04T19:57:01;102437.53;;;9.34;62.98
32851;BME280;19202;48.992;8.390;2023-02-04T20:02:38;102437.53;;;9.34;63.18
32851;BME280;19202;48.992;8.390;2023-02-04T20:14:49;102427.00;;;9.31;64.55
32851;BME280;19202;48.992;8.390;2023-02-04T20:20:30;102429.59;;;9.30;63.91
32851;BME280;19202;48.992;8.390;2023-02-04T20:26:09;102430.47;;;9.24;63.72
32851;BME280;19202;48.992;8.390;2023-02-04T20:31:47;102433.97;;;9.14;63.93
32851;BME280;19202;48.992;8.390;2023-02-04T20:37:26;102435.75;;;9.15;63.92
32851;BME280;19202;48.992;8.390;2023-02-04T20:43:10;102429.56;;;9.15;64.10
32851;BME280;19202;48.992;8.390;2023-02-04T20:48:49;102443.66;;;9.15;63.72
32851;BME280;19202;48.992;8.390;2023-02-04T20:54:28;102451.59;;;9.18;63.72
32851;BME280;19202;48.992;8.390;2023-02-04T21:00:30;102464.78;;;9.20;64.50
32851;BME280;19202;48.992;8.390;2023-02-04T21:06:26;102468.31;;;9.20;64.30
32851;BME280;19202;48.992;8.390;2023-02-04T21:12:05;102466.56;;;9.21;64.01
32851;BME280;19202;48.992;8.390;2023-02-04T21:17:43;102476.25;;;9.19;64.30
32851;BME280;19202;48.992;8.390;2023-02-04T21:23:21;102476.22;;;9.14;64.29
32851;BME280;19202;48.992;8.390;2023-02-04T21:28:59;102474.44;;;9.09;64.85
32851;BME280;19202;48.992;8.390;2023-02-04T21:34:37;102477.97;;;9.03;64.86
32851;BME280;19202;48.992;8.390;2023-02-04T21:40:16;102483.22;;;9.02;65.04
32851;BME280;19202;48.992;8.390;2023-02-04T21:45:58;102484.06;;;8.95;65.29
32851;BME280;19202;48.992;8.390;2023-02-04T21:51:36;102480.53;;;8.91;66.45
32851;BME280;19202;48.992;8.390;2023-02-04T21:57:14;102483.16;;;8.85;65.99
32851;BME280;19202;48.992;8.390;2023-02-04T22:02:53;102482.25;;;8.83;65.73
32851;BME280;19202;48.992;8.390;2023-02-04T22:08:31;102480.44;;;8.78;65.92
32851;BME280;19202;48.992;8.390;2023-02-04T22:14:09;102473.34;;;8.66;66.26
32851;BME280;19202;48.992;8.390;2023-02-04T22:20:06;102469.78;;;8.60;66.21
32851;BME280;19202;48.992;8.390;2023-02-04T22:25:44;102460.06;;;8.56;66.48
32851;BME280;19202;48.992;8.390;2023-02-04T22:31:22;102476.72;;;8.44;66.74
32851;BME280;19202;48.992;8.390;2023-02-04T22:37:00;102474.03;;;8.35;67.27
32851;BME280;19202;48.992;8.390;2023-02-04T22:42:38;102459.91;;;8.30;67.20
32851;BME280;19202;48.992;8.390;2023-02-04T22:48:16;102473.06;;;8.25;67.36
32851;BME280;19202;48.992;8.390;2023-02-04T22:53:54;102467.75;;;8.24;67.15
32851;BME280;19202;48.992;8.390;2023-02-04T22:59:31;102471.22;;;8.18;67.07
32851;BME280;19202;48.992;8.390;2023-02-04T23:05:09;102453.63;;;8.13;67.17
32851;BME280;19202;48.992;8.390;2023-02-04T23:10:47;102463.22;;;8.05;67.69
32851;BME280;19202;48.992;8.390;2023-02-04T23:16:25;102460.47;;;7.94;68.20
32851;BME280;19202;48.992;8.390;2023-02-04T23:22:04;102479.72;;;7.84;68.53
32851;BME280;19202;48.992;8.390;2023-02-04T23:27:42;102478.72;;;7.72;69.29
32851;BME280;19202;48.992;8.390;2023-02-04T23:33:20;102468.19;;;7.72;69.35
32851;BME280;19202;48.992;8.390;2023-02-04T23:38:59;102468.19;;;7.73;69.19
32851;BME280;19202;48.992;8.390;2023-02-04T23:44:37;102474.28;;;7.69;69.59
32851;BME280;19202;48.992;8.390;2023-02-04T23:50:15;102484.88;;;7.72;69.47
32851;BME280;19202;48.992;8.390;2023-02-04T23:55:53;102478.72;;;7.72;69.49
